createdAt,value
2019-05-07T00:01:13.238Z,16.17
2019-05-07T00:03:42.072Z,16.07
2019-05-07T00:06:08.689Z,15.97
2019-05-07T00:08:35.566Z,15.97
2019-05-07T00:11:02.548Z,16.01
2019-05-07T00:13:30.364Z,16.00
2019-05-07T00:15:57.244Z,15.95
2019-05-07T00:18:24.128Z,15.94
2019-05-07T00:20:52.953Z,15.88
2019-05-07T00:23:19.923Z,15.86
2019-05-07T00:25:46.949Z,15.90
2019-05-07T00:28:13.813Z,15.91
2019-05-07T00:30:42.472Z,15.94
2019-05-07T00:33:09.637Z,15.99
2019-05-07T00:35:36.600Z,16.01
2019-05-07T00:38:04.610Z,16.04
2019-05-07T00:40:32.098Z,16.04
2019-05-07T00:42:59.471Z,15.97
2019-05-07T00:45:26.352Z,15.96
2019-05-07T00:47:53.568Z,15.99
2019-05-07T00:50:22.420Z,16.03
2019-05-07T00:52:49.017Z,16.05
2019-05-07T00:55:15.881Z,16.05
2019-05-07T00:57:43.192Z,16.04
2019-05-07T01:00:16.690Z,16.04
2019-05-07T01:02:38.655Z,16.04
2019-05-07T01:05:05.592Z,16.01
2019-05-07T01:07:32.583Z,16.03
2019-05-07T01:09:59.493Z,16.05
2019-05-07T01:12:26.371Z,16.05
2019-05-07T01:14:53.256Z,16.04
2019-05-07T01:17:22.491Z,16.03
2019-05-07T01:19:48.805Z,16.03
2019-05-07T01:22:16.015Z,16.01
2019-05-07T01:24:42.993Z,15.99
2019-05-07T01:27:09.933Z,15.97
2019-05-07T01:29:36.862Z,15.94
2019-05-07T01:32:04.833Z,15.90
2019-05-07T01:34:32.256Z,15.90
2019-05-07T01:36:59.433Z,15.91
2019-05-07T01:39:26.300Z,15.91
2019-05-07T01:41:53.561Z,15.86
2019-05-07T01:44:22.131Z,15.82
2019-05-07T01:46:49.007Z,15.79
2019-05-07T01:49:16.217Z,15.78
2019-05-07T01:51:43.073Z,15.74
2019-05-07T01:54:09.941Z,15.74
2019-05-07T01:56:36.833Z,15.74
2019-05-07T01:59:03.794Z,15.73
2019-05-07T02:01:33.160Z,15.74
2019-05-07T02:03:59.285Z,15.77
2019-05-07T02:06:26.574Z,15.78
2019-05-07T02:08:53.441Z,15.73
2019-05-07T02:11:21.853Z,15.70
2019-05-07T02:13:48.993Z,15.65
2019-05-07T02:16:16.222Z,15.62
2019-05-07T02:18:43.177Z,15.60
2019-05-07T02:21:10.123Z,15.55
2019-05-07T02:23:37.036Z,15.51
2019-05-07T02:26:04.318Z,15.47
2019-05-07T02:28:32.991Z,15.47
2019-05-07T02:31:00.013Z,15.49
2019-05-07T02:33:27.179Z,15.48
2019-05-07T02:35:54.072Z,15.47
2019-05-07T02:38:23.010Z,15.47
2019-05-07T02:40:49.612Z,15.48
2019-05-07T02:43:16.566Z,15.48
2019-05-07T02:45:43.968Z,15.50
2019-05-07T02:48:12.935Z,15.50
2019-05-07T02:50:39.731Z,15.50
2019-05-07T02:53:06.677Z,15.49
2019-05-07T02:55:33.905Z,15.47
2019-05-07T02:58:03.587Z,15.46
2019-05-07T03:00:29.523Z,15.46
2019-05-07T03:02:56.472Z,15.48
2019-05-07T03:05:23.449Z,15.47
2019-05-07T03:07:53.232Z,15.46
2019-05-07T03:10:18.944Z,15.48
2019-05-07T03:12:45.898Z,15.50
2019-05-07T03:15:13.343Z,15.49
2019-05-07T03:17:42.915Z,15.49
2019-05-07T03:20:09.009Z,15.49
2019-05-07T03:22:35.951Z,15.48
2019-05-07T03:25:03.503Z,15.45
2019-05-07T03:27:33.809Z,15.44
2019-05-07T03:29:59.317Z,15.43
2019-05-07T03:32:27.841Z,15.44
2019-05-07T03:34:57.671Z,15.43
2019-05-07T03:37:23.598Z,15.43
2019-05-07T03:39:53.527Z,15.44
2019-05-07T03:42:19.500Z,15.42
2019-05-07T03:44:46.499Z,15.39
2019-05-07T03:47:14.011Z,15.39
2019-05-07T03:49:42.965Z,15.42
2019-05-07T03:52:09.696Z,15.39
2019-05-07T03:54:36.601Z,15.41
2019-05-07T03:57:11.037Z,15.46
2019-05-07T03:59:34.801Z,15.54
2019-05-07T04:02:03.330Z,15.55
2019-05-07T04:04:33.119Z,15.58
2019-05-07T04:06:59.277Z,15.59
2019-05-07T04:09:26.344Z,15.60
2019-05-07T04:11:53.319Z,15.62
2019-05-07T04:14:23.176Z,15.62
2019-05-07T04:16:53.527Z,15.60
2019-05-07T04:19:18.324Z,15.56
2019-05-07T04:21:45.292Z,15.56
2019-05-07T04:24:13.630Z,15.60
2019-05-07T04:26:42.943Z,15.66
2019-05-07T04:29:13.275Z,15.69
2019-05-07T04:31:43.060Z,15.73
2019-05-07T04:34:08.965Z,15.78
2019-05-07T04:36:36.250Z,15.83
2019-05-07T04:39:03.401Z,15.88
2019-05-07T04:41:32.991Z,15.93
2019-05-07T04:44:03.118Z,15.97
2019-05-07T04:46:28.544Z,15.96
2019-05-07T04:48:56.167Z,15.99
2019-05-07T04:51:23.427Z,16.04
2019-05-07T04:53:54.202Z,16.09
2019-05-07T04:56:23.795Z,16.13
2019-05-07T04:58:53.123Z,16.14
2019-05-07T05:01:19.982Z,16.15
2019-05-07T05:03:47.103Z,16.10
2019-05-07T05:06:14.267Z,16.06
2019-05-07T05:08:43.509Z,16.11
2019-05-07T05:11:12.560Z,16.15
2019-05-07T05:13:38.639Z,16.11
2019-05-07T05:16:07.289Z,15.99
2019-05-07T05:18:34.371Z,15.95
2019-05-07T05:21:03.110Z,15.96
2019-05-07T05:23:32.248Z,16.01
2019-05-07T05:25:59.369Z,16.09
2019-05-07T05:28:26.303Z,16.10
2019-05-07T05:30:53.196Z,16.14
2019-05-07T05:33:20.125Z,16.18
2019-05-07T05:35:47.032Z,16.24
2019-05-07T05:38:13.982Z,16.27
2019-05-07T05:40:42.694Z,16.35
2019-05-07T05:43:09.556Z,16.42
2019-05-07T05:45:36.480Z,16.50
2019-05-07T05:48:07.505Z,16.53
2019-05-07T05:50:33.150Z,16.58
2019-05-07T05:53:00.268Z,16.60
2019-05-07T05:55:27.244Z,16.60
2019-05-07T05:57:54.144Z,16.64
2019-05-07T06:00:22.114Z,16.68
2019-05-07T06:02:49.238Z,16.71
2019-05-07T06:05:17.188Z,16.76
2019-05-07T06:07:44.393Z,16.81
2019-05-07T06:10:12.878Z,16.85
2019-05-07T06:12:39.924Z,16.90
2019-05-07T06:15:06.812Z,16.94
2019-05-07T06:17:33.692Z,16.96
2019-05-07T06:20:02.782Z,17.00
2019-05-07T06:22:29.250Z,17.07
2019-05-07T06:24:56.514Z,17.08
2019-05-07T06:27:23.665Z,17.14
2019-05-07T06:29:52.398Z,17.20
2019-05-07T06:32:19.441Z,17.27
2019-05-07T06:34:46.305Z,17.34
2019-05-07T06:37:13.550Z,17.37
2019-05-07T06:39:42.138Z,17.40
2019-05-07T06:42:09.183Z,17.46
2019-05-07T06:44:36.136Z,17.48
2019-05-07T06:47:03.075Z,17.39
2019-05-07T06:49:32.443Z,17.43
2019-05-07T06:51:59.589Z,17.50
2019-05-07T06:54:26.925Z,17.54
2019-05-07T06:56:53.795Z,17.61
2019-05-07T06:59:22.504Z,17.67
2019-05-07T07:01:49.266Z,17.69
2019-05-07T07:04:16.194Z,17.71
2019-05-07T07:06:43.178Z,17.89
2019-05-07T07:09:12.153Z,18.30
2019-05-07T07:11:38.739Z,18.46
2019-05-07T07:14:05.641Z,18.45
2019-05-07T07:16:32.688Z,18.43
2019-05-07T07:18:59.608Z,18.40
2019-05-07T07:21:26.579Z,18.35
2019-05-07T07:23:53.476Z,18.30
2019-05-07T07:26:22.130Z,18.29
2019-05-07T07:28:49.001Z,18.27
2019-05-07T07:31:15.870Z,18.43
2019-05-07T07:33:43.688Z,18.57
2019-05-07T07:36:12.785Z,18.55
2019-05-07T07:38:41.930Z,18.95
2019-05-07T07:41:08.212Z,19.43
2019-05-07T07:43:35.185Z,20.24
2019-05-07T07:46:02.300Z,20.64
2019-05-07T07:48:29.331Z,20.70
2019-05-07T07:50:56.202Z,21.44
2019-05-07T07:53:23.085Z,21.33
2019-05-07T07:55:49.996Z,20.78
2019-05-07T07:58:16.893Z,20.57
2019-05-07T08:00:43.846Z,20.10
2019-05-07T08:03:13.217Z,19.81
2019-05-07T08:05:39.454Z,19.63
2019-05-07T08:08:06.376Z,19.45
2019-05-07T08:10:33.267Z,19.29
2019-05-07T08:13:01.970Z,19.08
2019-05-07T08:15:29.144Z,18.93
2019-05-07T08:17:56.029Z,18.72
2019-05-07T08:20:22.961Z,18.58
2019-05-07T08:22:49.844Z,18.48
2019-05-07T08:25:16.733Z,18.47
2019-05-07T08:27:43.708Z,18.53
2019-05-07T08:30:11.844Z,18.64
2019-05-07T08:32:38.971Z,18.75
2019-05-07T08:35:06.399Z,18.85
2019-05-07T08:37:33.355Z,18.96
2019-05-07T08:40:02.916Z,18.99
2019-05-07T08:42:28.884Z,19.04
2019-05-07T08:44:55.942Z,19.03
2019-05-07T08:47:22.945Z,18.99
2019-05-07T08:49:49.825Z,19.08
2019-05-07T08:52:16.780Z,19.25
2019-05-07T08:54:43.994Z,19.53
2019-05-07T08:57:12.129Z,19.78
2019-05-07T08:59:39.305Z,20.00
2019-05-07T09:02:06.167Z,20.12
2019-05-07T09:04:33.108Z,20.15
2019-05-07T09:07:00.015Z,20.08
2019-05-07T09:09:26.948Z,19.90
2019-05-07T09:11:54.153Z,19.69
2019-05-07T09:14:23.566Z,19.52
2019-05-07T09:16:49.625Z,19.42
2019-05-07T09:19:16.602Z,19.41
2019-05-07T09:21:44.512Z,19.47
2019-05-07T09:24:12.179Z,19.50
2019-05-07T09:26:39.397Z,19.48
2019-05-07T09:29:06.772Z,19.40
2019-05-07T09:31:33.656Z,19.33
2019-05-07T09:34:02.538Z,19.33
2019-05-07T09:36:29.165Z,19.28
2019-05-07T09:38:59.160Z,19.24
2019-05-07T09:41:24.874Z,19.20
2019-05-07T09:43:51.868Z,19.12
2019-05-07T09:46:20.713Z,19.09
2019-05-07T09:48:47.484Z,19.07
2019-05-07T09:51:14.349Z,19.06
2019-05-07T09:53:42.482Z,19.14
2019-05-07T09:56:09.524Z,19.22
2019-05-07T09:58:39.218Z,19.27
2019-05-07T10:01:05.008Z,19.36
2019-05-07T10:03:32.553Z,19.40
2019-05-07T10:06:02.213Z,19.45
2019-05-07T10:08:29.395Z,19.50
2019-05-07T10:10:56.299Z,19.48
2019-05-07T10:13:23.171Z,19.55
2019-05-07T10:15:52.437Z,19.58
2019-05-07T10:18:18.609Z,19.54
2019-05-07T10:20:45.854Z,19.41
2019-05-07T10:23:12.744Z,19.37
2019-05-07T10:25:39.716Z,19.34
2019-05-07T10:28:06.651Z,19.37
2019-05-07T10:30:33.819Z,19.44
2019-05-07T10:33:01.797Z,19.49
2019-05-07T10:35:31.099Z,19.46
2019-05-07T10:37:57.747Z,19.49
2019-05-07T10:40:25.100Z,19.54
2019-05-07T10:42:52.123Z,19.56
2019-05-07T10:45:21.884Z,19.55
2019-05-07T10:47:48.909Z,19.57
2019-05-07T10:50:16.935Z,19.62
2019-05-07T10:52:44.866Z,19.54
2019-05-07T10:55:12.102Z,19.40
2019-05-07T10:57:39.161Z,19.35
2019-05-07T11:00:06.050Z,19.33
2019-05-07T11:02:34.629Z,19.37
2019-05-07T11:05:02.289Z,19.45
2019-05-07T11:07:30.300Z,19.57
2019-05-07T11:09:57.449Z,19.68
2019-05-07T11:12:24.738Z,19.65
2019-05-07T11:14:51.754Z,19.60
2019-05-07T11:17:18.699Z,19.59
2019-05-07T11:19:45.916Z,19.65
2019-05-07T11:22:12.860Z,19.82
2019-05-07T11:24:39.736Z,20.06
2019-05-07T11:27:06.696Z,20.21
2019-05-07T11:29:36.464Z,20.21
2019-05-07T11:32:02.240Z,20.31
2019-05-07T11:34:29.109Z,20.38
2019-05-07T11:36:55.981Z,20.45
2019-05-07T11:39:22.866Z,20.46
2019-05-07T11:41:51.752Z,20.52
2019-05-07T11:44:18.792Z,20.57
2019-05-07T11:46:45.688Z,20.60
2019-05-07T11:49:13.874Z,20.70
2019-05-07T11:51:42.600Z,20.74
2019-05-07T11:54:09.653Z,20.67
2019-05-07T11:56:36.906Z,20.58
2019-05-07T11:59:03.893Z,20.42
2019-05-07T12:01:43.449Z,20.31
2019-05-07T12:04:02.020Z,20.26
2019-05-07T12:06:32.044Z,20.27
2019-05-07T12:08:58.849Z,20.26
2019-05-07T12:11:26.185Z,20.24
2019-05-07T12:13:53.114Z,20.19
2019-05-07T12:16:22.230Z,20.18
2019-05-07T12:18:48.648Z,20.18
2019-05-07T12:21:20.808Z,20.17
2019-05-07T12:23:44.200Z,20.12
2019-05-07T12:26:12.576Z,20.09
2019-05-07T12:28:41.688Z,20.06
2019-05-07T12:31:08.319Z,20.07
2019-05-07T12:33:35.269Z,20.02
2019-05-07T12:36:02.135Z,20.05
2019-05-07T12:38:29.016Z,20.07
2019-05-07T12:40:55.906Z,20.11
2019-05-07T12:43:22.864Z,20.15
2019-05-07T12:45:52.318Z,20.22
2019-05-07T12:48:18.664Z,20.27
2019-05-07T12:50:45.546Z,20.24
2019-05-07T12:53:12.517Z,20.24
2019-05-07T12:55:39.798Z,20.24
2019-05-07T12:58:06.756Z,20.20
2019-05-07T13:00:33.697Z,20.24
2019-05-07T13:03:02.545Z,20.22
2019-05-07T13:05:29.140Z,20.15
2019-05-07T13:07:56.095Z,20.09
2019-05-07T13:10:23.040Z,20.09
2019-05-07T13:12:50.051Z,20.11
2019-05-07T13:15:26.801Z,20.10
2019-05-07T13:17:45.480Z,20.01
2019-05-07T13:20:12.377Z,20.01
2019-05-07T13:22:39.262Z,20.04
2019-05-07T13:25:06.193Z,20.09
2019-05-07T13:27:34.976Z,20.04
2019-05-07T13:30:02.525Z,19.99
2019-05-07T13:32:31.990Z,20.01
2019-05-07T13:34:59.128Z,20.08
2019-05-07T13:37:26.022Z,20.15
2019-05-07T13:39:53.014Z,20.14
2019-05-07T13:42:21.560Z,20.10
2019-05-07T13:44:48.628Z,20.12
2019-05-07T13:47:15.552Z,20.18
2019-05-07T13:49:42.802Z,20.20
2019-05-07T13:52:11.715Z,20.22
2019-05-07T13:54:38.287Z,20.21
2019-05-07T13:57:05.499Z,20.25
2019-05-07T13:59:32.452Z,20.33
2019-05-07T14:01:59.349Z,20.36
2019-05-07T14:04:26.290Z,20.37
2019-05-07T14:06:53.237Z,20.40
2019-05-07T14:09:23.842Z,20.43
2019-05-07T14:11:48.703Z,20.48
2019-05-07T14:14:15.581Z,20.46
2019-05-07T14:16:45.003Z,20.51
2019-05-07T14:19:13.015Z,20.54
2019-05-07T14:21:41.971Z,20.56
2019-05-07T14:24:09.539Z,20.55
2019-05-07T14:26:36.568Z,20.55
2019-05-07T14:29:03.513Z,20.56
2019-05-07T14:31:33.527Z,20.57
2019-05-07T14:33:58.957Z,20.59
2019-05-07T14:36:25.825Z,20.61
2019-05-07T14:38:52.736Z,20.58
2019-05-07T14:41:19.688Z,20.54
2019-05-07T14:43:46.565Z,20.56
2019-05-07T14:46:13.435Z,20.57
2019-05-07T14:48:41.950Z,20.57
2019-05-07T14:51:09.050Z,20.61
2019-05-07T14:53:36.312Z,20.58
2019-05-07T14:56:03.280Z,20.58
2019-05-07T14:58:31.919Z,20.54
2019-05-07T15:00:59.005Z,20.63
2019-05-07T15:03:26.873Z,20.77
2019-05-07T15:05:53.797Z,20.92
2019-05-07T15:08:21.985Z,21.05
2019-05-07T15:10:49.047Z,21.12
2019-05-07T15:13:15.924Z,21.08
2019-05-07T15:15:42.785Z,21.11
2019-05-07T15:18:09.747Z,21.20
2019-05-07T15:20:37.026Z,21.16
2019-05-07T15:23:04.252Z,21.13
2019-05-07T15:25:31.984Z,21.16
2019-05-07T15:27:59.089Z,21.11
2019-05-07T15:30:25.967Z,21.09
2019-05-07T15:32:52.928Z,20.92
2019-05-07T15:35:21.240Z,20.86
2019-05-07T15:37:48.534Z,20.85
2019-05-07T15:40:15.533Z,20.93
2019-05-07T15:42:42.496Z,20.97
2019-05-07T15:45:09.460Z,21.03
2019-05-07T15:47:36.501Z,21.04
2019-05-07T15:50:03.737Z,20.99
2019-05-07T15:52:32.599Z,21.02
2019-05-07T15:55:02.610Z,21.07
2019-05-07T15:57:29.038Z,21.01
2019-05-07T15:59:56.004Z,21.00
2019-05-07T16:02:22.979Z,21.01
2019-05-07T16:04:49.930Z,21.02
2019-05-07T16:07:16.785Z,21.00
2019-05-07T16:09:43.682Z,20.94
2019-05-07T16:12:12.246Z,20.82
2019-05-07T16:14:39.301Z,20.75
2019-05-07T16:17:06.226Z,20.69
2019-05-07T16:19:33.197Z,20.64
2019-05-07T16:22:03.574Z,20.61
2019-05-07T16:24:29.012Z,20.63
2019-05-07T16:26:55.941Z,20.63
2019-05-07T16:29:23.012Z,20.73
2019-05-07T16:31:51.725Z,20.84
2019-05-07T16:34:18.540Z,20.92
2019-05-07T16:36:45.398Z,20.96
2019-05-07T16:39:12.310Z,21.00
2019-05-07T16:41:39.272Z,20.98
2019-05-07T16:44:06.207Z,20.81
2019-05-07T16:46:33.146Z,20.63
2019-05-07T16:49:01.887Z,20.52
2019-05-07T16:51:28.964Z,20.52
2019-05-07T16:53:56.316Z,20.58
2019-05-07T16:56:23.287Z,20.63
2019-05-07T16:58:52.219Z,20.65
2019-05-07T17:01:19.192Z,20.68
2019-05-07T17:03:46.148Z,20.67
2019-05-07T17:06:13.028Z,20.60
2019-05-07T17:08:42.209Z,20.54
2019-05-07T17:11:09.117Z,20.53
2019-05-07T17:13:36.031Z,20.51
2019-05-07T17:16:03.506Z,20.51
2019-05-07T17:18:32.569Z,20.53
2019-05-07T17:21:01.873Z,20.53
2019-05-07T17:23:41.314Z,20.49
2019-05-07T17:25:57.519Z,20.45
2019-05-07T17:28:24.539Z,20.38
2019-05-07T17:30:52.436Z,20.34
2019-05-07T17:33:19.587Z,20.34
2019-05-07T17:35:46.764Z,20.36
2019-05-07T17:38:13.665Z,20.39
2019-05-07T17:40:42.362Z,20.41
2019-05-07T17:43:09.504Z,20.43
2019-05-07T17:45:36.401Z,20.40
2019-05-07T17:48:03.394Z,20.36
2019-05-07T17:50:32.302Z,20.32
2019-05-07T17:52:59.693Z,20.29
2019-05-07T17:55:26.648Z,20.26
2019-05-07T17:57:53.554Z,20.22
2019-05-07T18:00:22.088Z,20.19
2019-05-07T18:02:49.333Z,20.17
2019-05-07T18:05:19.024Z,20.13
2019-05-07T18:07:46.421Z,20.08
2019-05-07T18:10:13.405Z,20.07
2019-05-07T18:12:42.462Z,20.04
2019-05-07T18:15:09.357Z,20.02
2019-05-07T18:17:36.525Z,19.97
2019-05-07T18:20:03.432Z,19.92
2019-05-07T18:22:32.431Z,19.90
2019-05-07T18:24:59.163Z,19.89
2019-05-07T18:27:26.594Z,19.82
2019-05-07T18:29:53.549Z,19.74
2019-05-07T18:32:21.906Z,19.72
2019-05-07T18:34:49.093Z,19.71
2019-05-07T18:37:19.277Z,19.72
2019-05-07T18:39:46.266Z,19.76
2019-05-07T18:42:13.674Z,19.75
2019-05-07T18:44:41.746Z,19.74
2019-05-07T18:47:09.222Z,19.72
2019-05-07T18:49:36.246Z,19.71
2019-05-07T18:52:03.335Z,19.70
2019-05-07T18:54:31.569Z,19.68
2019-05-07T18:56:58.764Z,19.68
2019-05-07T18:59:25.736Z,19.62
2019-05-07T19:01:52.809Z,19.60
2019-05-07T19:04:21.788Z,19.59
2019-05-07T19:06:48.565Z,19.58
2019-05-07T19:09:15.640Z,19.56
2019-05-07T19:11:42.765Z,19.54
2019-05-07T19:14:09.964Z,19.53
2019-05-07T19:16:36.914Z,19.51
2019-05-07T19:19:04.014Z,19.49
2019-05-07T19:21:31.964Z,19.45
2019-05-07T19:23:59.176Z,19.43
2019-05-07T19:26:26.266Z,19.43
2019-05-07T19:28:53.268Z,19.44
2019-05-07T19:31:23.548Z,19.43
2019-05-07T19:33:52.431Z,19.44
2019-05-07T19:36:19.689Z,19.45
2019-05-07T19:38:46.645Z,19.40
2019-05-07T19:41:13.578Z,19.41
2019-05-07T19:43:41.938Z,19.37
2019-05-07T19:46:09.118Z,19.32
2019-05-07T19:48:36.092Z,19.28
2019-05-07T19:51:03.103Z,19.28
2019-05-07T19:53:32.534Z,19.31
2019-05-07T19:55:59.015Z,19.33
2019-05-07T19:58:25.890Z,19.34
2019-05-07T20:00:57.073Z,19.37
2019-05-07T20:03:22.293Z,19.34
2019-05-07T20:05:49.406Z,19.26
2019-05-07T20:08:16.449Z,19.24
2019-05-07T20:10:43.772Z,19.22
2019-05-07T20:13:12.444Z,19.24
2019-05-07T20:15:39.921Z,19.22
2019-05-07T20:18:06.804Z,19.21
2019-05-07T20:20:33.782Z,19.21
2019-05-07T20:23:02.629Z,19.22
2019-05-07T20:25:29.622Z,19.23
2019-05-07T20:27:56.625Z,19.19
2019-05-07T20:30:23.496Z,19.17
2019-05-07T20:32:52.244Z,19.17
2019-05-07T20:35:18.972Z,19.17
2019-05-07T20:37:45.949Z,19.13
2019-05-07T20:40:12.889Z,19.13
2019-05-07T20:42:42.764Z,19.12
2019-05-07T20:45:08.477Z,19.13
2019-05-07T20:47:35.871Z,19.09
2019-05-07T20:50:02.788Z,19.05
2019-05-07T20:52:32.567Z,19.04
2019-05-07T20:54:59.336Z,19.03
2019-05-07T20:57:26.246Z,19.02
2019-05-07T20:59:53.204Z,19.01
2019-05-07T21:02:22.444Z,19.02
2019-05-07T21:04:49.084Z,19.06
2019-05-07T21:07:16.031Z,19.06
2019-05-07T21:09:43.040Z,19.05
2019-05-07T21:12:10.001Z,19.03
2019-05-07T21:14:36.930Z,19.02
2019-05-07T21:17:03.805Z,18.99
2019-05-07T21:19:33.093Z,18.86
2019-05-07T21:22:01.997Z,18.77
2019-05-07T21:24:28.639Z,18.69
2019-05-07T21:26:55.655Z,18.58
2019-05-07T21:29:22.582Z,18.51
2019-05-07T21:31:49.538Z,18.49
2019-05-07T21:34:16.495Z,18.49
2019-05-07T21:36:43.500Z,18.50
2019-05-07T21:39:12.736Z,18.54
2019-05-07T21:41:39.094Z,18.56
2019-05-07T21:44:06.646Z,18.63
2019-05-07T21:46:33.515Z,18.72
2019-05-07T21:49:02.583Z,18.72
2019-05-07T21:51:29.334Z,18.67
2019-05-07T21:53:57.334Z,18.54
2019-05-07T21:56:24.236Z,18.52
2019-05-07T21:58:53.851Z,18.62
2019-05-07T22:01:21.756Z,18.67
2019-05-07T22:03:48.363Z,18.67
2019-05-07T22:06:15.236Z,18.51
2019-05-07T22:08:42.192Z,18.41
2019-05-07T22:11:09.055Z,18.44
2019-05-07T22:13:36.040Z,18.49
2019-05-07T22:16:03.028Z,18.54
2019-05-07T22:18:32.049Z,18.53
2019-05-07T22:20:58.887Z,18.50
2019-05-07T22:23:25.853Z,18.43
2019-05-07T22:25:52.900Z,18.28
2019-05-07T22:28:22.435Z,18.26
2019-05-07T22:30:49.577Z,18.24
2019-05-07T22:33:16.467Z,18.18
2019-05-07T22:35:43.478Z,18.14
2019-05-07T22:38:28.395Z,18.12
2019-05-07T22:40:56.371Z,17.92
2019-05-07T22:43:23.906Z,17.86
2019-05-07T22:45:50.832Z,17.82
2019-05-07T22:48:18.172Z,17.80
2019-05-07T22:50:46.564Z,17.76
2019-05-07T22:53:13.889Z,17.74
2019-05-07T22:55:41.900Z,17.71
2019-05-07T22:58:08.938Z,17.73
2019-05-07T23:00:35.885Z,17.78
2019-05-07T23:03:02.954Z,17.73
2019-05-07T23:05:32.261Z,17.69
2019-05-07T23:07:58.502Z,17.64
2019-05-07T23:10:25.405Z,17.62
2019-05-07T23:12:52.289Z,17.63
2019-05-07T23:15:19.266Z,17.63
2019-05-07T23:17:46.130Z,17.55
2019-05-07T23:20:13.064Z,17.52
2019-05-07T23:22:39.927Z,17.48
2019-05-07T23:25:06.858Z,17.51
2019-05-07T23:27:34.123Z,17.57
2019-05-07T23:30:02.551Z,17.63
2019-05-07T23:32:29.922Z,17.60
2019-05-07T23:34:56.780Z,17.55
2019-05-07T23:37:23.687Z,17.51
2019-05-07T23:39:51.911Z,17.47
2019-05-07T23:42:18.908Z,17.43
2019-05-07T23:44:45.858Z,17.47
2019-05-07T23:47:13.167Z,17.42
2019-05-07T23:49:40.030Z,17.32
2019-05-07T23:52:07.098Z,17.27
2019-05-07T23:54:34.432Z,17.24
2019-05-07T23:57:08.602Z,17.22
2019-05-07T23:59:32.861Z,17.15
